This is the latest recevied weather packets stored in our database for station/object SQ4IXR-4. If no packets are shown the sender has not sent any weather packets the latest 10 day(s).
| Time | Temp. | Humidity | Pressure | Rain* | Wind** | Luminosity | Snow |
|---|---|---|---|---|---|---|---|
| 1788172116 | 32.78° C | 30% | 1016.6 hPa | - | - | - | - |
| 1788171296 | 32.78° C | 31% | 1016.5 hPa | - | - | - | - |
| 1788170470 | 32.78° C | 32% | 1016.6 hPa | - | - | - | - |
| 1788169643 | 32.22° C | 33% | 1016.7 hPa | - | - | - | - |
| 1788168819 | 31.67° C | 35% | 1016.7 hPa | - | - | - | - |
| 1788167996 | 31.67° C | 35% | 1016.8 hPa | - | - | - | - |
| 1788167181 | 35° C | 31% | 1016.7 hPa | - | - | - | - |
| 1788166376 | 41.11° C | 23% | 1016.5 hPa | - | - | - | - |
| 1788165561 | 48.89° C | 15% | 1016.2 hPa | - | - | - | - |
| 1788164741 | 53.33° C | 12% | 1016 hPa | - | - | - | - |
| 1788163918 | 53.33° C | 12% | 1015.9 hPa | - | - | - | - |
| 1788163094 | 55.56° C | 11% | 1015.9 hPa | - | - | - | - |
| 1788162270 | 55° C | 12% | 1015.9 hPa | - | - | - | - |
| 1788161430 | 47.78° C | 16% | 1016.3 hPa | - | - | - | - |
| 1788160610 | 47.78° C | 16% | 1016.4 hPa | - | - | - | - |
| 1788159777 | 40.56° C | 23% | 1016.8 hPa | - | - | - | - |
| 1788158943 | 36.67° C | 28% | 1017.1 hPa | - | - | - | - |
| 1788158109 | 32.22° C | 36% | 1017.3 hPa | - | - | - | - |
| 1788157290 | 31.11° C | 37% | 1017.2 hPa | - | - | - | - |
| 1788156466 | 33.33° C | 33% | 1017.1 hPa | - | - | - | - |
| 1788155641 | 32.78° C | 34% | 1017.1 hPa | - | - | - | - |
| 1788154805 | 31.67° C | 37% | 1017.2 hPa | - | - | - | - |
| 1788153969 | 23.33° C | 60% | 1017.8 hPa | - | - | - | - |
| 1788153139 | 22.22° C | 67% | 1017.7 hPa | - | - | - | - |
| 1788152312 | 20.56° C | 76% | 1018 hPa | - | - | - | - |
* Rain since midnight (hover to see other rain measurements)
** Current wind speed in m/s (hover to see current wind gust speed)